createdAt,value
2022-10-25T00:04:48.533Z,2.42
2022-10-25T00:09:52.616Z,2.58
2022-10-25T00:14:56.509Z,3.17
2022-10-25T00:19:59.430Z,3.15
2022-10-25T00:25:03.458Z,3.15
2022-10-25T00:30:11.736Z,3.13
2022-10-25T00:35:15.316Z,3.35
2022-10-25T00:40:20.420Z,2.92
2022-10-25T00:45:29.224Z,2.75
2022-10-25T00:50:50.785Z,3.20
2022-10-25T00:55:59.584Z,3.20
2022-10-25T01:05:13.582Z,2.53
2022-10-25T01:10:16.101Z,2.40
2022-10-25T01:15:24.276Z,2.97
2022-10-25T01:20:47.021Z,3.05
2022-10-25T01:26:00.192Z,3.40
2022-10-25T01:31:04.642Z,2.85
2022-10-25T01:36:18.550Z,2.85
2022-10-25T01:41:31.204Z,2.13
2022-10-25T01:46:42.072Z,2.58
2022-10-25T01:51:44.885Z,2.58
2022-10-25T01:57:04.801Z,2.60
2022-10-25T02:02:28.535Z,2.72
2022-10-25T02:08:07.016Z,2.60
2022-10-25T02:13:33.343Z,2.47
2022-10-25T02:18:39.882Z,2.28
2022-10-25T02:23:45.415Z,2.55
2022-10-25T02:28:49.673Z,2.22
2022-10-25T02:34:03.253Z,2.70
2022-10-25T02:39:07.146Z,2.33
2022-10-25T02:44:26.923Z,2.58
2022-10-25T02:49:28.788Z,2.42
2022-10-25T02:54:33.144Z,2.42
2022-10-25T03:14:52.620Z,3.33
2022-10-25T03:19:54.333Z,2.92
2022-10-25T03:24:56.094Z,2.20
2022-10-25T03:29:57.816Z,2.42
2022-10-25T03:40:01.224Z,2.08
2022-10-25T03:45:03.200Z,2.58
2022-10-25T03:50:05.512Z,2.50
2022-10-25T03:55:07.536Z,2.63
2022-10-25T04:00:09.720Z,2.90
2022-10-25T04:05:28.378Z,2.70
2022-10-25T04:10:30.251Z,2.90
2022-10-25T04:15:32.011Z,2.40
2022-10-25T04:25:35.592Z,2.30
2022-10-25T04:30:38.829Z,2.05
2022-10-25T04:35:40.708Z,2.65
2022-10-25T04:45:44.060Z,2.63
2022-10-25T04:50:52.642Z,2.67
2022-10-25T04:55:58.306Z,2.53
2022-10-25T05:01:01.883Z,3.10
2022-10-25T05:06:09.913Z,3.65
2022-10-25T05:11:12.203Z,3.22
2022-10-25T05:16:21.116Z,2.67
2022-10-25T05:26:34.897Z,2.55
2022-10-25T05:31:44.512Z,2.78
2022-10-25T05:41:54.348Z,2.15
2022-10-25T05:46:56.367Z,2.65
2022-10-25T05:51:58.617Z,2.60
2022-10-25T05:57:09.213Z,2.80
2022-10-25T06:07:13.003Z,2.53
2022-10-25T06:17:17.099Z,2.53
2022-10-25T06:27:27.996Z,2.55
2022-10-25T06:32:30.236Z,3.30
2022-10-25T06:37:32.106Z,2.80
2022-10-25T06:47:35.695Z,3.60
2022-10-25T06:52:41.629Z,3.63
2022-10-25T06:57:44.410Z,4.97
2022-10-25T07:02:53.722Z,5.85
2022-10-25T07:07:55.908Z,4.40
2022-10-25T07:12:57.928Z,4.32
2022-10-25T07:18:02.955Z,4.20
2022-10-25T07:28:12.868Z,3.47
2022-10-25T07:33:15.344Z,5.20
2022-10-25T07:38:17.134Z,7.40
2022-10-25T07:43:18.897Z,6.30
2022-10-25T07:48:20.781Z,6.38
2022-10-25T07:53:26.924Z,4.22
2022-10-25T07:58:32.383Z,5.10
2022-10-25T08:03:34.124Z,5.40
2022-10-25T08:08:36.286Z,5.95
2022-10-25T08:13:38.752Z,5.80
2022-10-25T08:18:42.341Z,5.75
2022-10-25T08:23:47.272Z,5.00
2022-10-25T08:28:53.905Z,6.13
2022-10-25T08:33:55.707Z,5.60
2022-10-25T08:38:57.429Z,4.40
2022-10-25T08:49:20.968Z,3.10
2022-10-25T08:54:38.536Z,2.85
2022-10-25T09:04:42.012Z,2.50
2022-10-25T09:09:52.216Z,2.78
2022-10-25T09:15:02.970Z,3.65
2022-10-25T09:20:04.778Z,3.10
2022-10-25T09:25:16.752Z,4.00
2022-10-25T09:30:19.031Z,5.97
2022-10-25T09:35:27.067Z,5.10
2022-10-25T09:40:47.522Z,5.10
2022-10-25T09:46:12.944Z,4.20
2022-10-25T09:51:15.882Z,3.58
2022-10-25T09:56:17.711Z,3.00
2022-10-25T10:01:29.412Z,2.83
2022-10-25T10:06:36.322Z,2.75
2022-10-25T10:11:39.508Z,3.17
2022-10-25T10:16:55.113Z,2.85
2022-10-25T10:22:01.574Z,3.25
2022-10-25T10:27:06.877Z,4.13
2022-10-25T10:32:29.102Z,3.78
2022-10-25T10:37:31.936Z,3.15
2022-10-25T10:42:38.625Z,3.33
2022-10-25T10:47:50.369Z,3.10
2022-10-25T10:52:55.209Z,2.80
2022-10-25T10:58:01.992Z,3.10
2022-10-25T11:03:03.873Z,3.42
2022-10-25T11:08:08.650Z,3.17
2022-10-25T11:13:13.431Z,3.60
2022-10-25T11:18:20.582Z,4.28
2022-10-25T11:23:36.668Z,3.60
2022-10-25T11:28:47.909Z,4.03
2022-10-25T11:34:15.535Z,3.63
2022-10-25T11:39:25.788Z,3.95
2022-10-25T11:44:30.539Z,3.50
2022-10-25T11:49:32.800Z,3.33
2022-10-25T11:54:50.664Z,4.60
2022-10-25T12:00:15.948Z,3.00
2022-10-25T12:05:33.146Z,3.25
2022-10-25T12:10:34.964Z,3.60
2022-10-25T12:15:46.404Z,4.07
2022-10-25T12:20:49.597Z,4.30
2022-10-25T12:26:00.391Z,3.90
2022-10-25T12:31:06.375Z,3.83
2022-10-25T12:36:23.601Z,3.67
2022-10-25T12:41:27.579Z,4.10
2022-10-25T12:46:32.243Z,4.22
2022-10-25T12:51:54.640Z,4.77
2022-10-25T12:57:05.849Z,5.20
2022-10-25T13:07:14.866Z,4.13
2022-10-25T13:12:16.669Z,4.30
2022-10-25T13:23:51.682Z,8.38
2022-10-25T13:28:54.816Z,5.72
2022-10-25T13:34:11.982Z,4.60
2022-10-25T13:39:26.913Z,3.85
2022-10-25T13:44:29.320Z,3.45
2022-10-25T13:49:38.895Z,4.65
2022-10-25T13:54:49.763Z,4.00
2022-10-25T13:59:54.430Z,4.80
2022-10-25T14:04:56.306Z,4.25
2022-10-25T14:09:58.582Z,4.32
2022-10-25T14:15:03.894Z,3.65
2022-10-25T14:20:24.375Z,4.32
2022-10-25T14:25:37.079Z,3.57
2022-10-25T14:30:49.831Z,4.13
2022-10-25T14:35:53.374Z,4.93
2022-10-25T14:40:56.846Z,4.03
2022-10-25T14:46:13.783Z,5.45
2022-10-25T14:51:24.423Z,4.25
2022-10-25T14:56:32.790Z,4.10
2022-10-25T15:01:37.813Z,4.63
2022-10-25T15:06:40.406Z,5.63
2022-10-25T15:12:02.120Z,4.72
2022-10-25T15:17:05.061Z,5.28
2022-10-25T15:22:08.360Z,4.53
2022-10-25T15:27:29.224Z,4.68
2022-10-25T15:32:31.245Z,5.78
2022-10-25T15:37:32.989Z,5.00
2022-10-25T15:42:34.735Z,4.57
2022-10-25T15:47:39.537Z,4.28
2022-10-25T15:52:41.729Z,4.95
2022-10-25T15:57:43.685Z,3.65
2022-10-25T16:02:47.122Z,4.50
2022-10-25T16:07:52.536Z,4.65
2022-10-25T16:13:00.385Z,4.32
2022-10-25T16:18:09.325Z,4.65
2022-10-25T16:23:11.020Z,4.68
2022-10-25T16:28:14.546Z,4.85
2022-10-25T16:33:16.542Z,4.38
2022-10-25T16:38:18.545Z,4.78
2022-10-25T16:43:20.326Z,4.43
2022-10-25T16:48:23.478Z,4.38
2022-10-25T16:53:25.336Z,4.63
2022-10-25T16:58:27.092Z,5.50
2022-10-25T17:03:28.844Z,5.07
2022-10-25T17:08:30.620Z,4.63
2022-10-25T17:13:32.511Z,4.28
2022-10-25T17:18:38.736Z,4.13
2022-10-25T17:23:42.761Z,4.07
2022-10-25T17:28:44.794Z,4.47
2022-10-25T17:33:50.186Z,4.07
2022-10-25T17:38:54.468Z,5.10
2022-10-25T17:43:57.063Z,4.60
2022-10-25T17:49:03.543Z,4.78
2022-10-25T17:54:05.270Z,4.00
2022-10-25T17:59:07.921Z,4.60
2022-10-25T18:04:10.273Z,4.68
2022-10-25T18:09:15.476Z,4.93
2022-10-25T18:14:17.337Z,4.85
2022-10-25T18:19:24.431Z,4.47
2022-10-25T18:24:26.994Z,4.55
2022-10-25T18:29:28.774Z,4.97
2022-10-25T18:34:31.216Z,4.75
2022-10-25T18:39:36.096Z,4.60
2022-10-25T18:44:40.097Z,4.45
2022-10-25T18:49:49.940Z,5.82
2022-10-25T18:54:53.731Z,4.95
2022-10-25T18:59:55.779Z,4.32
2022-10-25T19:04:57.578Z,5.30
2022-10-25T19:09:59.596Z,5.25
2022-10-25T19:15:01.679Z,5.00
2022-10-25T19:20:03.819Z,5.10
2022-10-25T19:25:05.997Z,5.00
2022-10-25T19:30:08.408Z,6.57
2022-10-25T19:35:10.485Z,4.38
2022-10-25T19:40:12.759Z,5.47
2022-10-25T19:45:14.823Z,7.47
2022-10-25T19:50:17.928Z,5.75
2022-10-25T19:55:19.998Z,4.75
2022-10-25T20:00:21.852Z,5.90
2022-10-25T20:05:26.424Z,4.60
2022-10-25T20:10:28.261Z,5.53
2022-10-25T20:15:30.104Z,5.50
2022-10-25T20:20:31.975Z,5.03
2022-10-25T20:25:33.817Z,4.85
2022-10-25T20:30:37.622Z,15.70
2022-10-25T20:35:40.645Z,9.00
2022-10-25T20:40:42.507Z,7.25
2022-10-25T20:45:48.105Z,5.90
2022-10-25T20:50:50.251Z,4.18
2022-10-25T20:55:52.107Z,4.00
2022-10-25T21:00:56.379Z,5.72
2022-10-25T21:05:59.947Z,4.93
2022-10-25T21:11:02.861Z,5.15
2022-10-25T21:16:07.555Z,3.70
2022-10-25T21:21:11.586Z,3.70
2022-10-25T21:26:17.394Z,3.88
2022-10-25T21:31:19.274Z,4.68
2022-10-25T21:36:21.308Z,5.28
2022-10-25T21:41:27.119Z,6.13
2022-10-25T21:46:29.283Z,5.53
2022-10-25T21:51:31.183Z,5.70
2022-10-25T21:56:36.429Z,5.63
2022-10-25T22:01:38.471Z,4.93
2022-10-25T22:06:40.414Z,4.18
2022-10-25T22:11:42.253Z,4.63
2022-10-25T22:16:53.405Z,5.05
2022-10-25T22:21:55.293Z,4.70
2022-10-25T22:26:57.171Z,4.43
2022-10-25T22:31:59.065Z,5.47
2022-10-25T22:37:01.432Z,5.00
2022-10-25T22:42:03.372Z,4.28
2022-10-25T22:47:05.521Z,4.35
2022-10-25T22:52:07.279Z,4.10
2022-10-25T22:57:09.026Z,3.97
2022-10-25T23:02:10.873Z,4.03
2022-10-25T23:07:12.763Z,5.70
2022-10-25T23:12:14.472Z,5.30
2022-10-25T23:17:16.191Z,3.83
2022-10-25T23:22:18.551Z,4.63
2022-10-25T23:27:20.296Z,4.00
2022-10-25T23:32:22.073Z,4.45
2022-10-25T23:37:27.448Z,4.65
2022-10-25T23:42:29.167Z,4.57
2022-10-25T23:47:30.884Z,4.97
2022-10-25T23:52:32.738Z,4.07
2022-10-25T23:57:34.537Z,4.47
